Time;durP1;ratioP1;P1;durP2;ratioP2;P2;SDS_P1;SDS_P2;PMS_P1;PMS_P2;Temp;Humidity;BMP_temperature;BMP_pressure;BME280_temperature;BME280_humidity;BME280_pressure;Samples;Min_cycle;Max_cycle;Signal;HPM_P1;HPM_P2
2021/09/16 00:00:46;;;;;;;15.27;11.10;;;23.50;63.40;;;;;;5050710;28;20079;-70
2021/09/16 00:03:12;;;;;;;15.95;13.57;;;23.60;63.40;;;;;;5050979;28;20033;-70
2021/09/16 00:05:38;;;;;;;18.38;13.68;;;23.50;63.80;;;;;;5054540;28;20025;-69
2021/09/16 00:08:03;;;;;;;18.88;12.77;;;23.50;63.80;;;;;;5050045;28;20028;-69
2021/09/16 00:10:29;;;;;;;17.23;12.00;;;23.50;63.80;;;;;;5050920;28;20048;-69
2021/09/16 00:12:55;;;;;;;16.63;13.05;;;23.50;63.90;;;;;;5054497;28;20056;-69
2021/09/16 00:15:21;;;;;;;18.30;14.35;;;23.50;64.00;;;;;;5060475;28;20498;-69
2021/09/16 00:17:47;;;;;;;16.50;12.95;;;23.50;64.20;;;;;;5051101;28;20033;-69
2021/09/16 00:20:13;;;;;;;14.48;12.23;;;23.50;64.10;;;;;;5057178;28;20027;-69
2021/09/16 00:22:38;;;;;;;18.45;14.23;;;23.50;64.20;;;;;;5071161;28;20168;-69
2021/09/16 00:25:06;;;;;;;15.60;13.43;;;23.50;64.30;;;;;;5070525;28;20091;-69
2021/09/16 00:27:32;;;;;;;15.10;12.50;;;23.50;64.60;;;;;;5070812;28;20032;-69
2021/09/16 00:29:57;;;;;;;19.88;12.63;;;23.50;64.60;;;;;;5065820;28;20021;-69
2021/09/16 00:32:23;;;;;;;16.63;13.50;;;23.50;64.70;;;;;;5050738;28;20116;-70
2021/09/16 00:34:49;;;;;;;14.05;12.50;;;23.50;64.70;;;;;;5051217;28;20466;-69
2021/09/16 00:37:16;;;;;;;19.88;14.82;;;23.50;64.70;;;;;;5049617;28;20570;-70
2021/09/16 00:39:42;;;;;;;18.63;13.63;;;23.50;64.90;;;;;;5053293;28;20529;-69
2021/09/16 00:42:08;;;;;;;14.50;11.88;;;23.50;64.80;;;;;;5054725;28;20087;-69
2021/09/16 00:44:34;;;;;;;13.65;12.25;;;23.50;64.70;;;;;;5071605;28;20021;-69
2021/09/16 00:47:00;;;;;;;18.02;13.50;;;23.50;65.50;;;;;;5074680;28;20430;-69
2021/09/16 00:49:25;;;;;;;16.25;12.82;;;23.40;64.80;;;;;;5073263;28;20456;-69
2021/09/16 00:51:52;;;;;;;15.20;12.30;;;23.40;64.60;;;;;;5054559;28;20040;-69
2021/09/16 00:54:20;;;;;;;12.98;11.55;;;23.40;64.80;;;;;;5054628;28;20035;-69
2021/09/16 00:56:48;;;;;;;14.48;12.20;;;23.40;64.90;;;;;;5054458;28;20029;-69
2021/09/16 00:59:20;;;;;;;14.27;12.43;;;23.40;65.00;;;;;;5054319;28;20032;-69
2021/09/16 01:01:46;;;;;;;14.23;12.60;;;23.40;65.10;;;;;;5054183;28;20379;-69
2021/09/16 01:04:11;;;;;;;17.58;13.00;;;23.40;65.20;;;;;;5054119;28;20125;-68
2021/09/16 01:06:37;;;;;;;15.27;13.07;;;23.30;65.20;;;;;;5053945;28;20029;-68
2021/09/16 01:09:03;;;;;;;15.95;13.05;;;23.30;65.20;;;;;;5052764;28;20083;-68
2021/09/16 01:11:29;;;;;;;17.40;14.65;;;23.30;65.30;;;;;;5053710;28;20446;-69
2021/09/16 01:13:56;;;;;;;15.85;13.90;;;23.30;65.20;;;;;;5053883;28;20025;-69
2021/09/16 01:16:22;;;;;;;17.23;13.93;;;23.30;65.30;;;;;;5053681;28;20107;-69
2021/09/16 01:18:48;;;;;;;15.40;13.38;;;23.30;65.40;;;;;;5053973;28;20430;-69
2021/09/16 01:21:14;;;;;;;15.32;13.23;;;23.30;65.30;;;;;;5054761;28;20036;-69
2021/09/16 01:23:40;;;;;;;16.27;13.73;;;23.30;65.40;;;;;;5053514;28;20032;-69
2021/09/16 01:26:06;;;;;;;14.95;12.38;;;23.30;65.50;;;;;;5067250;28;20060;-69
2021/09/16 01:28:32;;;;;;;24.35;15.25;;;23.30;65.40;;;;;;5073713;28;20096;-69
2021/09/16 01:30:58;;;;;;;16.88;14.23;;;23.30;65.70;;;;;;5060909;28;20107;-69
2021/09/16 01:33:23;;;;;;;18.63;13.80;;;23.30;65.50;;;;;;5053338;28;20029;-69
2021/09/16 01:35:49;;;;;;;16.83;14.50;;;23.30;65.60;;;;;;5053440;28;20203;-69
2021/09/16 01:38:15;;;;;;;15.73;14.02;;;23.30;65.60;;;;;;5073144;28;20478;-70
2021/09/16 01:40:41;;;;;;;16.23;14.48;;;23.30;65.50;;;;;;5063864;28;20040;-68
2021/09/16 01:43:07;;;;;;;14.88;13.27;;;23.30;65.60;;;;;;5053181;28;20033;-69
2021/09/16 01:45:33;;;;;;;15.23;13.55;;;23.30;65.50;;;;;;5053751;28;20449;-69
2021/09/16 01:47:58;;;;;;;17.25;13.73;;;23.30;65.50;;;;;;5053482;28;20048;-68
2021/09/16 01:50:25;;;;;;;18.65;14.23;;;23.30;65.60;;;;;;5052688;28;20367;-69
2021/09/16 01:52:52;;;;;;;17.55;15.65;;;23.30;65.60;;;;;;5053249;28;20025;-69
2021/09/16 01:55:19;;;;;;;18.80;14.45;;;23.30;65.70;;;;;;5051915;28;20035;-69
2021/09/16 01:57:44;;;;;;;16.10;13.68;;;23.30;65.70;;;;;;5053164;28;20483;-69
2021/09/16 02:00:11;;;;;;;18.55;14.77;;;23.30;65.50;;;;;;5053108;28;20103;-69
2021/09/16 02:02:37;;;;;;;17.17;13.82;;;23.30;65.50;;;;;;5051694;28;20072;-69
2021/09/16 02:05:03;;;;;;;19.83;16.55;;;23.30;65.60;;;;;;5053106;28;20060;-69
2021/09/16 02:07:29;;;;;;;19.45;15.30;;;23.30;65.90;;;;;;5052986;28;20037;-69
2021/09/16 02:09:55;;;;;;;18.13;15.77;;;23.20;65.80;;;;;;5053086;28;20027;-70
2021/09/16 02:12:21;;;;;;;21.63;17.67;;;23.20;65.90;;;;;;5053010;28;20032;-69
2021/09/16 02:14:46;;;;;;;21.27;18.13;;;23.20;66.20;;;;;;5052502;28;20033;-69
2021/09/16 02:17:12;;;;;;;20.75;16.92;;;23.20;66.40;;;;;;5052891;28;20071;-69
2021/09/16 02:19:38;;;;;;;24.80;16.92;;;23.10;66.10;;;;;;5051405;28;20024;-69
2021/09/16 02:22:04;;;;;;;21.40;14.85;;;23.10;66.20;;;;;;5052720;28;20061;-69
2021/09/16 02:24:31;;;;;;;18.60;15.30;;;23.10;66.00;;;;;;5052583;28;20416;-69
2021/09/16 02:26:57;;;;;;;16.95;14.65;;;23.10;66.10;;;;;;5056248;28;20111;-69
2021/09/16 02:29:23;;;;;;;18.55;15.43;;;23.10;66.10;;;;;;5067411;28;20120;-68
2021/09/16 02:31:49;;;;;;;19.55;15.07;;;23.10;66.10;;;;;;5052468;28;20040;-69
2021/09/16 02:34:14;;;;;;;18.25;14.40;;;23.10;66.10;;;;;;5059932;28;20088;-69
2021/09/16 02:36:40;;;;;;;16.55;14.70;;;23.10;66.10;;;;;;5072371;28;20112;-68
2021/09/16 02:39:06;;;;;;;18.10;14.50;;;23.10;66.10;;;;;;5072355;28;20104;-69
2021/09/16 02:41:32;;;;;;;16.67;14.25;;;23.10;66.30;;;;;;5053353;28;20107;-69
2021/09/16 02:43:57;;;;;;;16.55;13.73;;;23.10;66.20;;;;;;5052271;28;20021;-69
2021/09/16 02:46:23;;;;;;;17.98;15.13;;;23.10;66.30;;;;;;5067868;28;20053;-70
2021/09/16 02:48:50;;;;;;;23.17;18.17;;;23.10;66.50;;;;;;5072158;28;20025;-69
2021/09/16 02:51:15;;;;;;;21.75;16.67;;;23.00;66.70;;;;;;5071948;28;20035;-69
2021/09/16 02:53:41;;;;;;;19.00;16.23;;;23.00;66.70;;;;;;5068976;28;20033;-69
2021/09/16 02:56:07;;;;;;;20.63;17.48;;;23.00;66.70;;;;;;5071811;28;20397;-69
2021/09/16 02:58:33;;;;;;;23.10;15.65;;;23.00;66.70;;;;;;5072114;28;20060;-69
2021/09/16 03:00:59;;;;;;;24.08;18.23;;;22.90;66.70;;;;;;5071493;28;20076;-69
2021/09/16 03:03:24;;;;;;;22.63;17.52;;;22.90;67.10;;;;;;5071038;28;20477;-69
2021/09/16 03:05:50;;;;;;;20.35;16.13;;;22.90;67.10;;;;;;5071622;28;20481;-69
2021/09/16 03:08:16;;;;;;;19.75;15.05;;;22.90;67.10;;;;;;5056346;28;20056;-70
2021/09/16 03:10:42;;;;;;;20.67;16.13;;;22.80;67.00;;;;;;5063914;28;20127;-69
2021/09/16 03:13:08;;;;;;;22.48;16.63;;;22.80;67.00;;;;;;5071733;28;20093;-69
2021/09/16 03:15:33;;;;;;;21.15;15.48;;;22.80;67.00;;;;;;5060189;28;20115;-69
2021/09/16 03:17:59;;;;;;;18.90;16.60;;;22.70;66.90;;;;;;5052526;28;20035;-69
2021/09/16 03:20:26;;;;;;;20.05;16.42;;;22.80;67.10;;;;;;5052674;28;20099;-69
2021/09/16 03:22:51;;;;;;;20.08;17.02;;;22.70;67.10;;;;;;5052438;28;20109;-69
2021/09/16 03:25:18;;;;;;;18.05;15.70;;;22.70;67.20;;;;;;5052417;28;20060;-69
2021/09/16 03:27:44;;;;;;;21.67;16.33;;;22.70;67.00;;;;;;5052439;28;20043;-69
2021/09/16 03:30:12;;;;;;;25.67;16.90;;;22.60;67.10;;;;;;5056000;28;20020;-69
2021/09/16 03:32:38;;;;;;;20.40;16.95;;;22.60;67.30;;;;;;5060904;28;20024;-69
2021/09/16 03:35:05;;;;;;;26.00;16.98;;;22.50;67.40;;;;;;5069902;28;20099;-69
2021/09/16 03:37:31;;;;;;;20.20;15.85;;;22.50;67.80;;;;;;5072180;28;20052;-69
2021/09/16 03:39:57;;;;;;;21.73;17.25;;;22.50;67.70;;;;;;5072625;28;20056;-69
2021/09/16 03:42:23;;;;;;;21.77;18.10;;;22.40;67.80;;;;;;5070939;28;20103;-68
2021/09/16 03:44:48;;;;;;;23.60;17.92;;;22.40;67.80;;;;;;5066939;28;20506;-69
2021/09/16 03:47:15;;;;;;;20.55;17.42;;;22.30;68.10;;;;;;5052337;28;20029;-69
2021/09/16 03:49:41;;;;;;;21.48;18.23;;;22.30;68.40;;;;;;5052318;28;20036;-69
2021/09/16 03:52:08;;;;;;;21.50;17.58;;;22.20;68.50;;;;;;5052167;28;20111;-69
2021/09/16 03:54:35;;;;;;;23.80;18.88;;;22.20;68.80;;;;;;5052076;28;20029;-70
2021/09/16 03:57:02;;;;;;;25.52;19.13;;;22.20;69.00;;;;;;5052114;28;20102;-69
2021/09/16 03:59:28;;;;;;;22.98;17.70;;;22.10;68.90;;;;;;5051845;28;20457;-69
2021/09/16 04:01:54;;;;;;;25.65;19.13;;;22.10;68.80;;;;;;5051765;28;20119;-69
2021/09/16 04:04:19;;;;;;;23.38;18.05;;;22.10;69.10;;;;;;5051736;28;20031;-69
2021/09/16 04:06:45;;;;;;;24.00;18.33;;;22.00;69.30;;;;;;5051691;28;20025;-68
2021/09/16 04:09:11;;;;;;;24.38;19.15;;;22.00;69.70;;;;;;5051824;28;20489;-69
2021/09/16 04:11:37;;;;;;;24.98;19.33;;;22.00;70.10;;;;;;5070948;28;20020;-69
2021/09/16 04:14:02;;;;;;;26.70;19.55;;;22.00;70.40;;;;;;5069944;28;20032;-69
2021/09/16 04:16:28;;;;;;;24.40;19.30;;;22.00;70.50;;;;;;5052127;28;20032;-70
2021/09/16 04:18:54;;;;;;;21.95;18.52;;;22.00;70.50;;;;;;5051484;28;20025;-69
2021/09/16 04:21:20;;;;;;;22.25;18.70;;;22.00;70.40;;;;;;5051739;28;20055;-69
2021/09/16 04:23:45;;;;;;;23.20;18.95;;;22.00;70.30;;;;;;5057028;28;20068;-69
2021/09/16 04:26:11;;;;;;;26.05;21.38;;;22.00;70.30;;;;;;5054602;28;20108;-69
2021/09/16 04:28:37;;;;;;;25.33;20.40;;;22.00;70.40;;;;;;5051620;28;20496;-70
2021/09/16 04:31:03;;;;;;;26.00;20.40;;;22.10;70.40;;;;;;5051701;28;20075;-69
2021/09/16 04:33:28;;;;;;;27.00;19.55;;;22.00;70.40;;;;;;5051728;28;20048;-69
2021/09/16 04:35:54;;;;;;;26.05;18.83;;;22.00;70.40;;;;;;5055128;28;20102;-69
2021/09/16 04:38:20;;;;;;;31.88;21.00;;;22.10;70.50;;;;;;5060827;28;20490;-70
2021/09/16 04:40:46;;;;;;;30.00;21.73;;;22.10;70.50;;;;;;5060386;28;20032;-70
2021/09/16 04:43:12;;;;;;;27.58;21.10;;;22.10;70.60;;;;;;5071256;28;20039;-69
2021/09/16 04:45:38;;;;;;;28.00;21.13;;;22.10;70.50;;;;;;5071385;28;20552;-69
2021/09/16 04:48:04;;;;;;;23.80;20.35;;;22.10;70.50;;;;;;5071616;28;20013;-70
2021/09/16 04:50:29;;;;;;;25.58;21.08;;;22.10;70.40;;;;;;5071267;28;20052;-69
2021/09/16 04:52:55;;;;;;;27.67;18.90;;;22.10;70.10;;;;;;5071328;28;20072;-69
2021/09/16 04:55:21;;;;;;;30.45;22.45;;;22.20;70.20;;;;;;5070884;28;20398;-69
2021/09/16 04:57:47;;;;;;;31.30;22.98;;;22.20;70.20;;;;;;5057888;28;20029;-69
2021/09/16 05:00:13;;;;;;;31.05;22.08;;;22.20;70.10;;;;;;5051432;28;20051;-69
2021/09/16 05:02:39;;;;;;;32.05;21.40;;;22.20;70.10;;;;;;5051139;28;20494;-69
2021/09/16 05:05:06;;;;;;;33.60;24.30;;;22.20;70.00;;;;;;5051461;28;20394;-69
2021/09/16 05:07:32;;;;;;;26.42;22.20;;;22.20;70.10;;;;;;5051285;28;20021;-69
2021/09/16 05:09:58;;;;;;;27.20;21.88;;;22.20;70.00;;;;;;5051341;28;20470;-70
2021/09/16 05:12:23;;;;;;;27.88;22.92;;;22.10;70.00;;;;;;5051448;28;20104;-69
2021/09/16 05:14:49;;;;;;;28.33;21.17;;;22.10;70.10;;;;;;5051039;28;20039;-69
2021/09/16 05:17:15;;;;;;;28.77;22.55;;;22.10;70.00;;;;;;5054567;28;20029;-69
2021/09/16 05:19:41;;;;;;;30.10;23.38;;;22.10;70.20;;;;;;5059309;28;20271;-69
2021/09/16 05:22:06;;;;;;;30.15;22.65;;;22.10;70.30;;;;;;5071034;28;20103;-69
2021/09/16 05:24:33;;;;;;;32.92;22.50;;;22.10;70.40;;;;;;5069400;28;20385;-69
2021/09/16 05:26:59;;;;;;;29.05;22.52;;;22.10;70.40;;;;;;5072329;28;20020;-69
2021/09/16 05:29:25;;;;;;;27.25;21.65;;;22.10;70.30;;;;;;5073250;28;20104;-69
2021/09/16 05:31:50;;;;;;;25.80;19.50;;;22.10;70.30;;;;;;5054758;28;20053;-69
2021/09/16 05:34:16;;;;;;;28.55;22.17;;;22.10;70.30;;;;;;5071504;28;20029;-68
2021/09/16 05:36:43;;;;;;;25.30;20.80;;;22.10;70.30;;;;;;5054477;28;20036;-69
2021/09/16 05:39:09;;;;;;;26.75;20.77;;;22.20;71.10;;;;;;5064179;28;20040;-69
2021/09/16 05:41:35;;;;;;;23.25;18.55;;;22.20;70.20;;;;;;5071730;28;20066;-68
2021/09/16 05:44:01;;;;;;;25.13;19.88;;;22.20;70.10;;;;;;5059601;28;20082;-69
2021/09/16 05:46:27;;;;;;;22.80;18.88;;;22.20;70.10;;;;;;5054204;28;20056;-69
2021/09/16 05:48:53;;;;;;;26.48;20.27;;;22.30;70.00;;;;;;5054557;28;20186;-69
2021/09/16 05:51:19;;;;;;;27.00;21.38;;;22.40;69.90;;;;;;5056230;28;20029;-68
2021/09/16 05:53:45;;;;;;;25.73;20.15;;;22.40;69.80;;;;;;5059201;28;20070;-70
2021/09/16 05:56:10;;;;;;;26.55;20.58;;;22.50;69.70;;;;;;5071230;28;20490;-69
2021/09/16 05:58:36;;;;;;;28.92;19.40;;;22.50;69.50;;;;;;5062716;28;20037;-69
2021/09/16 06:01:02;;;;;;;23.98;19.10;;;22.50;69.30;;;;;;5053884;28;20053;-69
2021/09/16 06:03:28;;;;;;;24.10;19.40;;;22.50;69.20;;;;;;5063270;28;20025;-70
2021/09/16 06:05:53;;;;;;;24.35;19.15;;;22.60;69.20;;;;;;5056660;28;20467;-70
2021/09/16 06:08:19;;;;;;;24.50;18.52;;;22.60;69.00;;;;;;5055789;28;20051;-70
2021/09/16 06:10:45;;;;;;;24.27;18.15;;;22.60;68.90;;;;;;5053852;28;20382;-69
2021/09/16 06:13:11;;;;;;;24.42;16.98;;;22.60;68.80;;;;;;5053771;28;20044;-69
2021/09/16 06:15:36;;;;;;;21.88;17.90;;;22.60;68.70;;;;;;5053955;28;20060;-70
2021/09/16 06:18:02;;;;;;;29.27;21.40;;;22.60;68.90;;;;;;5066993;28;20498;-70
2021/09/16 06:20:28;;;;;;;26.65;19.45;;;22.70;69.10;;;;;;5053639;28;20076;-70
2021/09/16 06:22:54;;;;;;;31.17;21.27;;;22.70;69.10;;;;;;5053325;28;20040;-69
2021/09/16 06:25:20;;;;;;;25.65;19.83;;;22.70;69.20;;;;;;5053131;28;20029;-70
2021/09/16 06:27:45;;;;;;;27.38;21.10;;;22.80;69.20;;;;;;5063521;28;20036;-71
2021/09/16 06:30:12;;;;;;;23.42;19.20;;;22.80;69.30;;;;;;5068464;28;20024;-70
2021/09/16 06:32:38;;;;;;;30.38;21.60;;;22.90;69.30;;;;;;5071971;28;20029;-70
2021/09/16 06:35:07;;;;;;;26.80;21.00;;;23.10;68.80;;;;;;5065950;28;20081;-70
2021/09/16 06:37:33;;;;;;;27.05;21.00;;;23.10;68.60;;;;;;5071992;28;20120;-71
2021/09/16 06:39:59;;;;;;;25.20;17.83;;;23.20;68.30;;;;;;5063110;28;20043;-71
2021/09/16 06:42:25;;;;;;;22.65;17.58;;;23.30;68.20;;;;;;5056187;28;20546;-71
2021/09/16 06:44:51;;;;;;;29.60;22.67;;;23.40;68.20;;;;;;5064758;28;20056;-70
2021/09/16 06:47:17;;;;;;;26.63;21.77;;;23.50;67.50;;;;;;5073304;28;20024;-70
2021/09/16 06:49:46;;;;;;;25.70;19.90;;;23.60;67.20;;;;;;5058645;28;20429;-70
2021/09/16 06:52:17;;;;;;;23.40;18.60;;;23.60;67.10;;;;;;5055236;28;20025;-70
2021/09/16 06:54:43;;;;;;;30.88;18.63;;;23.70;67.20;;;;;;5061883;28;20035;-70
2021/09/16 06:57:10;;;;;;;50.70;24.88;;;23.80;67.00;;;;;;5073110;28;20063;-70
2021/09/16 06:59:36;;;;;;;39.28;22.77;;;23.80;67.00;;;;;;5073000;28;20564;-70
2021/09/16 07:02:03;;;;;;;30.27;21.13;;;23.90;66.80;;;;;;5062629;28;20045;-70
2021/09/16 07:04:29;;;;;;;25.13;18.13;;;23.90;66.30;;;;;;5060925;28;20044;-70
2021/09/16 07:06:55;;;;;;;25.75;18.95;;;24.00;66.40;;;;;;5061374;28;20555;-70
2021/09/16 07:09:21;;;;;;;25.35;19.77;;;24.10;66.30;;;;;;5071894;28;20048;-70
2021/09/16 07:11:46;;;;;;;29.02;20.48;;;24.10;66.10;;;;;;5064183;28;20029;-71
2021/09/16 07:14:12;;;;;;;26.98;19.00;;;24.20;65.90;;;;;;5054040;28;20028;-71
2021/09/16 07:16:38;;;;;;;25.00;19.27;;;24.30;65.80;;;;;;5055864;28;20029;-71
2021/09/16 07:19:04;;;;;;;23.65;18.30;;;24.40;65.90;;;;;;5056426;28;20028;-71
2021/09/16 07:21:29;;;;;;;27.38;17.83;;;24.50;65.70;;;;;;5059241;28;20473;-71
2021/09/16 07:23:55;;;;;;;22.70;17.10;;;24.50;65.50;;;;;;5072244;28;20025;-70
2021/09/16 07:26:21;;;;;;;28.70;19.70;;;24.60;64.90;;;;;;5071505;28;20418;-71
2021/09/16 07:28:46;;;;;;;21.15;17.90;;;24.70;64.40;;;;;;5071882;28;20386;-70
2021/09/16 07:31:12;;;;;;;21.90;17.30;;;24.80;64.00;;;;;;5072458;28;20474;-69
2021/09/16 07:33:38;;;;;;;23.33;18.10;;;24.80;63.50;;;;;;5072236;28;20031;-70
2021/09/16 07:36:04;;;;;;;20.85;16.23;;;24.80;63.10;;;;;;5072026;28;20442;-70
2021/09/16 07:38:30;;;;;;;21.55;15.50;;;24.90;63.10;;;;;;5072000;28;20100;-69
2021/09/16 07:40:55;;;;;;;18.75;15.10;;;25.00;63.40;;;;;;5072121;28;20032;-70
2021/09/16 07:43:21;;;;;;;21.73;15.00;;;25.00;63.30;;;;;;5072107;28;20024;-71
2021/09/16 07:45:47;;;;;;;18.85;14.32;;;25.10;62.40;;;;;;5063672;28;20078;-70
2021/09/16 07:48:13;;;;;;;19.33;14.90;;;25.20;62.20;;;;;;5051754;28;20096;-71
2021/09/16 07:50:39;;;;;;;19.40;14.80;;;25.30;61.60;;;;;;5051883;28;20382;-71
2021/09/16 07:53:07;;;;;;;16.70;13.35;;;25.40;62.00;;;;;;5051800;28;20029;-71
2021/09/16 07:55:33;;;;;;;17.80;12.82;;;25.50;62.00;;;;;;5052104;28;20029;-71
2021/09/16 07:57:58;;;;;;;13.75;10.55;;;25.60;61.00;;;;;;5051961;28;20104;-71
2021/09/16 08:00:24;;;;;;;11.23;9.20;;;25.70;59.90;;;;;;5051658;28;20494;-70
2021/09/16 08:02:50;;;;;;;14.90;9.82;;;25.80;60.00;;;;;;5054057;28;20044;-74
2021/09/16 08:05:18;;;;;;;12.15;8.38;;;25.90;58.90;;;;;;5052539;28;20025;-74
2021/09/16 08:07:44;;;;;;;11.55;8.90;;;25.90;58.90;;;;;;5051629;28;20489;-74
2021/09/16 08:10:11;;;;;;;13.07;9.05;;;26.00;58.50;;;;;;5052299;28;20025;-74
2021/09/16 08:12:37;;;;;;;9.82;7.97;;;26.00;58.10;;;;;;5052602;28;20074;-73
2021/09/16 08:15:05;;;;;;;13.35;9.63;;;26.10;58.20;;;;;;5052592;28;20413;-74
2021/09/16 08:17:30;;;;;;;8.93;8.02;;;26.10;58.20;;;;;;5052511;28;20078;-74
2021/09/16 08:19:56;;;;;;;10.73;7.22;;;26.20;57.60;;;;;;5052549;28;20037;-74
2021/09/16 08:22:22;;;;;;;8.00;6.50;;;26.20;56.90;;;;;;5052581;28;20037;-72
2021/09/16 08:24:48;;;;;;;8.77;5.75;;;26.20;56.50;;;;;;5052648;28;20049;-73
2021/09/16 08:27:14;;;;;;;10.05;6.10;;;26.30;56.80;;;;;;5052520;28;20426;-73
2021/09/16 08:29:40;;;;;;;8.43;6.57;;;26.40;56.50;;;;;;5051354;28;20029;-72
2021/09/16 08:32:07;;;;;;;8.75;6.72;;;26.40;55.50;;;;;;5052591;28;20044;-73
2021/09/16 08:34:35;;;;;;;10.82;5.97;;;26.40;55.50;;;;;;5052586;28;20474;-73
2021/09/16 08:37:01;;;;;;;12.63;7.22;;;26.50;55.90;;;;;;5051203;28;20029;-73
2021/09/16 08:39:27;;;;;;;11.20;6.65;;;26.60;55.10;;;;;;5051219;28;20394;-73
2021/09/16 08:41:53;;;;;;;8.20;6.25;;;26.60;55.00;;;;;;5052083;28;20033;-73
2021/09/16 08:44:19;;;;;;;8.82;6.57;;;26.60;55.80;;;;;;5052167;28;20029;-73
2021/09/16 08:46:46;;;;;;;6.50;5.90;;;26.70;55.60;;;;;;5052453;28;20025;-73
2021/09/16 08:49:12;;;;;;;7.70;6.63;;;26.80;55.40;;;;;;5051095;28;20100;-73
2021/09/16 08:51:41;;;;;;;8.23;5.97;;;26.90;55.30;;;;;;5052330;28;20154;-73
2021/09/16 08:54:09;;;;;;;10.98;7.40;;;26.90;55.40;;;;;;5052407;28;20021;-73
2021/09/16 08:56:38;;;;;;;9.00;6.80;;;27.00;54.70;;;;;;5052341;28;20478;-73
2021/09/16 08:59:07;;;;;;;9.00;7.68;;;27.00;54.80;;;;;;5052269;28;20382;-73
2021/09/16 09:01:34;;;;;;;11.75;7.70;;;27.00;54.60;;;;;;5053111;28;20505;-73
2021/09/16 09:04:00;;;;;;;8.95;7.25;;;27.10;54.30;;;;;;5054860;28;20029;-73
2021/09/16 09:06:42;;;;;;;10.75;6.78;;;27.10;54.00;;;;;;5056113;28;20032;-73
2021/09/16 09:09:14;;;;;;;9.13;7.07;;;27.10;54.10;;;;;;5056061;28;20017;-73
2021/09/16 09:12:13;;;;;;;8.65;7.03;;;27.00;54.20;;;;;;5056045;28;20017;-73
2021/09/16 09:14:54;;;;;;;7.30;6.30;;;26.90;53.60;;;;;;5055935;28;20471;-73
2021/09/16 09:17:25;;;;;;;9.80;5.70;;;26.90;54.10;;;;;;5055797;28;20021;-73
2021/09/16 09:19:54;;;;;;;9.40;7.55;;;26.90;54.60;;;;;;5055822;28;20013;-73
2021/09/16 09:22:28;;;;;;;7.45;5.93;;;26.80;53.90;;;;;;5055690;28;20025;-73
2021/09/16 09:25:19;;;;;;;10.38;7.18;;;26.80;54.40;;;;;;5054445;28;20123;-73
2021/09/16 09:27:50;;;;;;;7.10;5.88;;;26.90;54.10;;;;;;5055526;28;20043;-73
2021/09/16 09:30:22;;;;;;;9.20;5.55;;;26.90;54.00;;;;;;5055606;28;20075;-73
2021/09/16 09:32:54;;;;;;;9.50;6.35;;;26.90;54.30;;;;;;5055585;28;20478;-74
2021/09/16 09:35:28;;;;;;;9.57;6.00;;;26.90;53.40;;;;;;5055529;28;20071;-73
2021/09/16 09:37:55;;;;;;;7.22;5.43;;;26.90;53.70;;;;;;5055513;28;20096;-73
2021/09/16 09:40:26;;;;;;;5.93;4.10;;;26.90;53.40;;;;;;5055473;28;20035;-73
2021/09/16 09:42:52;;;;;;;7.05;3.90;;;26.90;52.90;;;;;;5054015;28;20073;-73
2021/09/16 09:45:18;;;;;;;6.10;4.20;;;26.90;52.40;;;;;;5055313;28;20099;-74
2021/09/16 09:47:48;;;;;;;8.82;4.60;;;27.00;53.00;;;;;;5055184;28;20479;-73
2021/09/16 09:50:21;;;;;;;5.97;4.00;;;27.00;52.50;;;;;;5055144;28;20440;-73
2021/09/16 09:52:49;;;;;;;7.13;3.75;;;27.10;52.10;;;;;;5055269;28;20074;-73
2021/09/16 09:55:19;;;;;;;8.25;3.97;;;27.20;52.80;;;;;;5055101;28;20100;-73
2021/09/16 09:57:45;;;;;;;6.75;4.00;;;27.30;51.20;;;;;;5055059;28;20513;-73
2021/09/16 10:00:15;;;;;;;7.50;4.40;;;27.40;51.30;;;;;;5055138;28;20029;-73
2021/09/16 10:02:53;;;;;;;5.63;3.65;;;27.50;51.10;;;;;;5054680;28;20072;-73
2021/09/16 10:05:20;;;;;;;7.50;3.78;;;27.50;51.10;;;;;;5054989;28;20109;-73
2021/09/16 10:07:47;;;;;;;6.88;4.03;;;27.70;51.10;;;;;;5054819;28;20052;-74
2021/09/16 10:10:13;;;;;;;6.05;3.80;;;27.80;50.80;;;;;;5054871;28;20029;-73
2021/09/16 10:12:41;;;;;;;5.03;3.40;;;27.80;50.30;;;;;;5054277;28;20032;-73
2021/09/16 10:15:10;;;;;;;4.75;3.10;;;27.90;49.70;;;;;;5054875;28;20432;-73
2021/09/16 10:17:38;;;;;;;4.15;3.30;;;28.00;50.70;;;;;;5054815;28;20029;-73
2021/09/16 10:20:06;;;;;;;5.13;3.20;;;28.10;49.70;;;;;;5054604;28;20051;-74
2021/09/16 10:22:33;;;;;;;3.67;3.33;;;28.20;49.70;;;;;;5054174;28;20059;-73
2021/09/16 10:24:58;;;;;;;5.90;2.95;;;28.20;49.20;;;;;;5054586;28;20501;-74
2021/09/16 10:27:38;;;;;;;5.13;2.97;;;28.20;48.50;;;;;;5054460;28;20025;-73
2021/09/16 10:30:22;;;;;;;7.10;3.90;;;28.30;49.00;;;;;;5054550;28;20021;-73
2021/09/16 10:33:01;;;;;;;;;;;28.30;49.10;;;;;;5054608;28;20020;-74
2021/09/16 10:35:27;;;;;;;5.05;3.72;;;28.40;50.10;;;;;;5054311;28;19911;-73
2021/09/16 10:37:54;;;;;;;6.03;3.28;;;28.40;48.00;;;;;;5054461;28;20028;-73
2021/09/16 10:40:24;;;;;;;6.05;3.28;;;28.40;48.60;;;;;;5054202;28;20098;-73
2021/09/16 10:42:55;;;;;;;3.97;2.63;;;28.40;48.50;;;;;;5054232;28;20017;-73
2021/09/16 10:45:33;;;;;;;4.80;3.28;;;28.40;48.30;;;;;;5054264;28;20075;-73
2021/09/16 10:48:14;;;;;;;6.95;3.42;;;28.50;48.20;;;;;;5054196;28;20017;-73
2021/09/16 10:50:51;;;;;;;3.42;2.63;;;28.50;48.40;;;;;;5054050;28;20025;-73
2021/09/16 10:53:37;;;;;;;2.67;2.25;;;28.60;48.00;;;;;;5053885;28;20023;-73
2021/09/16 10:56:26;;;;;;;6.18;3.47;;;28.70;47.90;;;;;;5053972;28;20028;-74
2021/09/16 10:58:53;;;;;;;3.03;2.30;;;28.70;47.40;;;;;;5053786;28;20386;-73
2021/09/16 11:01:51;;;;;;;3.53;2.45;;;28.80;47.00;;;;;;5053715;28;20044;-74
2021/09/16 11:04:21;;;;;;;4.68;2.78;;;28.90;47.00;;;;;;5051423;28;20418;-73
2021/09/16 11:06:47;;;;;;;3.63;2.53;;;29.00;46.00;;;;;;5051623;28;20025;-73
2021/09/16 11:09:24;;;;;;;9.18;2.70;;;29.10;46.20;;;;;;5034795;28;20090;-73
2021/09/16 11:12:02;;;;;;;4.60;2.45;;;29.10;46.00;;;;;;5051602;28;20033;-74
2021/09/16 11:14:30;;;;;;;2.53;2.33;;;29.20;45.70;;;;;;5051512;28;20407;-73
2021/09/16 11:16:57;;;;;;;4.88;3.13;;;29.20;45.80;;;;;;5051346;28;20032;-73
2021/09/16 11:19:23;;;;;;;5.43;3.00;;;29.20;45.60;;;;;;5051487;28;20025;-73
2021/09/16 11:22:00;;;;;;;4.57;2.28;;;29.20;45.60;;;;;;5051342;28;20037;-73
2021/09/16 11:24:40;;;;;;;4.55;2.55;;;29.10;45.40;;;;;;5050528;28;20513;-73
2021/09/16 11:27:07;;;;;;;4.78;2.90;;;29.10;45.50;;;;;;5051294;28;20068;-73
2021/09/16 11:29:46;;;;;;;4.15;2.05;;;29.10;44.90;;;;;;5051153;28;20021;-73
2021/09/16 11:32:14;;;;;;;4.18;2.35;;;29.00;46.00;;;;;;5051005;28;20483;-73
2021/09/16 11:34:55;;;;;;;5.07;2.47;;;29.00;46.10;;;;;;5034251;28;20043;-73
2021/09/16 11:37:28;;;;;;;4.53;2.53;;;29.00;46.00;;;;;;5034149;28;20100;-74
2021/09/16 11:40:00;;;;;;;7.22;3.25;;;29.10;46.10;;;;;;5051174;28;20033;-74
2021/09/16 11:42:28;;;;;;;4.40;2.80;;;29.10;46.00;;;;;;5052978;28;20033;-74
2021/09/16 11:45:22;;;;;;;4.07;3.13;;;29.30;45.20;;;;;;5052800;28;20025;-74
2021/09/16 11:47:51;;;;;;;5.13;2.40;;;29.40;45.50;;;;;;5052893;28;20080;-73
2021/09/16 11:50:31;;;;;;;6.93;2.53;;;29.60;45.00;;;;;;5052979;28;20032;-74
2021/09/16 11:53:04;;;;;;;4.40;2.78;;;29.80;45.30;;;;;;5051545;28;20044;-74
2021/09/16 11:55:36;;;;;;;5.75;2.70;;;29.90;44.60;;;;;;5052910;28;20074;-74
2021/09/16 11:58:05;;;;;;;5.32;2.30;;;30.10;44.80;;;;;;5052753;28;20059;-74
2021/09/16 12:00:38;;;;;;;2.67;2.35;;;30.30;43.90;;;;;;5052541;28;20052;-74
2021/09/16 12:03:07;;;;;;;3.05;1.83;;;30.50;43.70;;;;;;5052895;28;20021;-74
2021/09/16 12:05:44;;;;;;;4.50;2.15;;;30.60;43.00;;;;;;5052548;28;20540;-74
2021/09/16 12:08:31;;;;;;;6.18;2.22;;;30.60;42.70;;;;;;5052783;28;20057;-74
2021/09/16 12:11:09;;;;;;;4.93;1.95;;;30.70;42.40;;;;;;5052752;28;20105;-73
2021/09/16 12:13:42;;;;;;;3.85;2.10;;;30.70;42.70;;;;;;5051411;28;20033;-74
2021/09/16 12:16:26;;;;;;;2.75;1.70;;;30.70;41.90;;;;;;5052778;28;20025;-73
2021/09/16 12:18:58;;;;;;;2.97;1.88;;;30.70;41.90;;;;;;5052685;28;20036;-74
2021/09/16 12:21:30;;;;;;;3.10;1.80;;;30.70;41.60;;;;;;5052756;28;20024;-73
2021/09/16 12:24:03;;;;;;;5.72;1.88;;;30.60;41.80;;;;;;5052738;28;20033;-74
2021/09/16 12:26:29;;;;;;;2.08;1.60;;;30.60;42.60;;;;;;5052808;28;20028;-73
2021/09/16 12:29:05;;;;;;;8.32;1.95;;;30.60;42.70;;;;;;5052776;28;20029;-73
2021/09/16 12:31:34;;;;;;;5.97;2.03;;;30.60;42.10;;;;;;5052767;28;20021;-73
2021/09/16 12:34:04;;;;;;;6.57;2.08;;;30.50;41.90;;;;;;5052662;28;20025;-74
2021/09/16 12:36:31;;;;;;;4.35;2.10;;;30.50;42.10;;;;;;5056613;28;20482;-73